createdAt,value
2019-05-30T00:01:29.976Z,90.20
2019-05-30T00:03:56.076Z,90.40
2019-05-30T00:06:21.896Z,90.60
2019-05-30T00:08:47.958Z,90.20
2019-05-30T00:11:13.762Z,90.43
2019-05-30T00:13:39.660Z,91.11
2019-05-30T00:16:05.750Z,90.93
2019-05-30T00:18:31.948Z,90.81
2019-05-30T00:20:58.748Z,90.98
2019-05-30T00:23:24.701Z,91.57
2019-05-30T00:25:50.789Z,91.22
2019-05-30T00:28:16.588Z,91.04
2019-05-30T00:30:42.693Z,91.01
2019-05-30T00:33:08.538Z,90.93
2019-05-30T00:35:34.604Z,92.12
2019-05-30T00:38:01.852Z,92.12
2019-05-30T00:40:27.956Z,91.68
2019-05-30T00:42:53.799Z,91.39
2019-05-30T00:45:21.438Z,91.37
2019-05-30T00:47:47.424Z,90.89
2019-05-30T00:50:13.593Z,90.83
2019-05-30T00:52:39.410Z,90.49
2019-05-30T00:55:06.842Z,89.80
2019-05-30T00:57:32.923Z,90.17
2019-05-30T00:59:58.805Z,90.62
2019-05-30T01:02:24.625Z,91.00
2019-05-30T01:04:50.428Z,90.80
2019-05-30T01:07:16.478Z,90.85
2019-05-30T01:09:42.286Z,90.95
2019-05-30T01:12:08.075Z,90.56
2019-05-30T01:14:33.896Z,90.60
2019-05-30T01:17:01.050Z,90.38
2019-05-30T01:19:27.000Z,90.25
2019-05-30T01:21:52.797Z,90.22
2019-05-30T01:24:18.620Z,90.16
2019-05-30T01:26:44.409Z,90.38
2019-05-30T01:29:10.490Z,90.47
2019-05-30T01:31:36.328Z,90.73
2019-05-30T01:34:02.100Z,90.99
2019-05-30T01:36:27.903Z,91.00
2019-05-30T01:38:53.766Z,91.00
2019-05-30T01:41:19.577Z,91.22
2019-05-30T01:43:45.369Z,91.55
2019-05-30T01:46:11.285Z,91.92
2019-05-30T01:48:37.131Z,91.90
2019-05-30T01:51:03.026Z,92.09
2019-05-30T01:53:29.118Z,91.71
2019-05-30T01:55:55.211Z,91.70
2019-05-30T01:58:21.033Z,91.78
2019-05-30T02:00:46.997Z,91.46
2019-05-30T02:03:12.805Z,91.35
2019-05-30T02:05:38.728Z,90.63
2019-05-30T02:08:05.509Z,90.03
2019-05-30T02:10:31.289Z,90.43
2019-05-30T02:12:57.396Z,90.63
2019-05-30T02:15:23.208Z,90.65
2019-05-30T02:17:49.301Z,91.05
2019-05-30T02:20:15.222Z,91.58
2019-05-30T02:22:41.652Z,91.77
2019-05-30T02:25:08.334Z,91.85
2019-05-30T02:27:34.199Z,91.69
2019-05-30T02:30:00.343Z,91.76
2019-05-30T02:32:26.165Z,91.34
2019-05-30T02:34:52.000Z,91.67
2019-05-30T02:37:17.815Z,91.75
2019-05-30T02:39:43.639Z,91.75
2019-05-30T02:42:10.198Z,91.53
2019-05-30T02:44:37.182Z,91.16
2019-05-30T02:47:03.599Z,90.91
2019-05-30T02:49:31.035Z,90.95
2019-05-30T02:51:56.823Z,91.35
2019-05-30T02:54:22.600Z,91.95
2019-05-30T02:56:48.693Z,92.07
2019-05-30T02:59:14.481Z,91.97
2019-05-30T03:01:58.865Z,91.82
2019-05-30T03:04:10.225Z,91.83
2019-05-30T03:06:36.087Z,91.91
2019-05-30T03:09:03.831Z,91.86
2019-05-30T03:11:29.781Z,91.98
2019-05-30T03:13:55.952Z,92.71
2019-05-30T03:16:21.754Z,92.66
2019-05-30T03:18:47.569Z,92.62
2019-05-30T03:21:15.436Z,92.32
2019-05-30T03:23:41.104Z,92.20
2019-05-30T03:26:09.771Z,91.92
2019-05-30T03:28:34.976Z,91.60
2019-05-30T03:31:04.313Z,91.57
2019-05-30T03:33:39.498Z,91.38
2019-05-30T03:35:57.250Z,91.50
2019-05-30T03:38:23.344Z,91.87
2019-05-30T03:40:49.276Z,91.92
2019-05-30T03:43:16.051Z,92.21
2019-05-30T03:45:42.464Z,91.90
2019-05-30T03:48:12.054Z,91.69
2019-05-30T03:50:40.593Z,91.41
2019-05-30T03:53:07.445Z,91.78
2019-05-30T03:55:35.797Z,91.74
2019-05-30T03:58:05.625Z,91.89
2019-05-30T04:00:41.177Z,92.05
2019-05-30T04:03:15.517Z,91.99
2019-05-30T04:05:48.038Z,92.07
2019-05-30T04:08:16.243Z,92.37
2019-05-30T04:10:42.469Z,93.20
2019-05-30T04:13:23.989Z,92.66
2019-05-30T04:15:49.846Z,91.34
2019-05-30T04:18:16.587Z,90.16
2019-05-30T04:20:42.831Z,89.39
2019-05-30T04:23:10.718Z,89.61
2019-05-30T04:25:36.897Z,90.42
2019-05-30T04:28:02.831Z,91.21
2019-05-30T04:30:28.640Z,90.91
2019-05-30T04:32:54.719Z,91.38
2019-05-30T04:35:22.477Z,91.65
2019-05-30T04:37:48.585Z,92.08
2019-05-30T04:40:15.355Z,92.73
2019-05-30T04:42:42.648Z,93.15
2019-05-30T04:45:09.697Z,92.70
2019-05-30T04:47:35.876Z,92.67
2019-05-30T04:50:03.975Z,92.47
2019-05-30T04:52:29.775Z,92.65
2019-05-30T04:54:55.870Z,92.56
2019-05-30T04:57:26.807Z,92.02
2019-05-30T04:59:49.658Z,91.33
2019-05-30T05:02:16.409Z,90.74
2019-05-30T05:04:43.451Z,90.10
2019-05-30T05:07:09.273Z,89.91
2019-05-30T05:09:35.074Z,89.88
2019-05-30T05:12:00.860Z,90.41
2019-05-30T05:14:26.925Z,90.67
2019-05-30T05:16:52.987Z,90.75
2019-05-30T05:19:19.572Z,90.51
2019-05-30T05:21:45.389Z,89.38
2019-05-30T05:24:11.502Z,88.98
2019-05-30T05:26:37.341Z,89.26
2019-05-30T05:29:03.437Z,89.29
2019-05-30T05:31:29.264Z,89.46
2019-05-30T05:33:57.129Z,89.42
2019-05-30T05:36:23.136Z,89.92
2019-05-30T05:38:48.873Z,90.15
2019-05-30T05:41:16.023Z,89.83
2019-05-30T05:43:41.877Z,89.01
2019-05-30T05:46:07.980Z,88.42
2019-05-30T05:48:33.802Z,89.51
2019-05-30T05:50:59.871Z,89.00
2019-05-30T05:53:25.968Z,89.03
2019-05-30T05:55:51.787Z,88.88
2019-05-30T05:58:18.973Z,88.12
2019-05-30T06:00:45.280Z,87.55
2019-05-30T06:03:11.116Z,87.19
2019-05-30T06:05:50.245Z,87.43
2019-05-30T06:08:04.666Z,86.61
2019-05-30T06:10:30.484Z,85.27
2019-05-30T06:12:56.264Z,84.15
2019-05-30T06:15:22.906Z,83.68
2019-05-30T06:17:48.809Z,83.32
2019-05-30T06:20:15.193Z,82.35
2019-05-30T06:22:41.901Z,82.02
2019-05-30T06:25:08.015Z,82.61
2019-05-30T06:27:33.792Z,81.98
2019-05-30T06:29:59.703Z,80.73
2019-05-30T06:32:26.669Z,79.08
2019-05-30T06:34:52.629Z,79.04
2019-05-30T06:37:19.212Z,78.74
2019-05-30T06:39:45.135Z,78.74
2019-05-30T06:42:11.214Z,78.76
2019-05-30T06:44:37.036Z,78.44
2019-05-30T06:47:02.840Z,77.34
2019-05-30T06:49:29.007Z,78.17
2019-05-30T06:51:54.889Z,77.11
2019-05-30T06:54:21.676Z,76.68
2019-05-30T06:56:47.762Z,76.22
2019-05-30T06:59:13.538Z,75.91
2019-05-30T07:01:39.595Z,74.15
2019-05-30T07:04:05.806Z,74.09
2019-05-30T07:06:33.458Z,73.31
2019-05-30T07:08:59.503Z,72.68
2019-05-30T07:11:25.292Z,73.34
2019-05-30T07:13:51.105Z,70.16
2019-05-30T07:16:16.926Z,70.90
2019-05-30T07:18:42.769Z,70.68
2019-05-30T07:21:08.569Z,69.63
2019-05-30T07:23:34.385Z,70.43
2019-05-30T07:26:06.630Z,69.99
2019-05-30T07:28:32.419Z,68.95
2019-05-30T07:30:58.339Z,67.36
2019-05-30T07:33:24.153Z,64.69
2019-05-30T07:35:49.970Z,64.79
2019-05-30T07:38:15.760Z,64.79
2019-05-30T07:40:41.561Z,64.90
2019-05-30T07:43:07.341Z,63.46
2019-05-30T07:45:33.494Z,60.70
2019-05-30T07:47:59.471Z,59.92
2019-05-30T07:50:26.314Z,60.06
2019-05-30T07:52:52.298Z,60.42
2019-05-30T07:55:18.212Z,61.97
2019-05-30T07:57:44.015Z,60.18
2019-05-30T08:00:11.542Z,62.99
2019-05-30T08:02:37.977Z,63.09
2019-05-30T08:05:20.767Z,62.21
2019-05-30T08:07:34.977Z,63.59
2019-05-30T08:10:01.340Z,63.59
2019-05-30T08:12:27.975Z,63.23
2019-05-30T08:14:53.853Z,60.30
2019-05-30T08:17:19.658Z,60.75
2019-05-30T08:19:45.568Z,60.43
2019-05-30T08:22:11.421Z,60.75
2019-05-30T08:24:38.712Z,59.11
2019-05-30T08:27:04.728Z,59.44
2019-05-30T08:29:30.516Z,58.32
2019-05-30T08:31:56.579Z,60.44
2019-05-30T08:34:22.384Z,59.14
2019-05-30T08:36:54.275Z,57.56
2019-05-30T08:39:20.325Z,55.46
2019-05-30T08:41:46.144Z,56.91
2019-05-30T08:44:11.958Z,53.81
2019-05-30T08:46:38.022Z,54.81
2019-05-30T08:49:03.772Z,52.44
2019-05-30T08:51:30.127Z,54.65
2019-05-30T08:53:56.194Z,52.13
2019-05-30T08:56:22.006Z,52.40
2019-05-30T08:58:47.899Z,52.54
2019-05-30T09:01:13.961Z,53.47
2019-05-30T09:03:40.250Z,53.76
2019-05-30T09:06:06.055Z,51.03
2019-05-30T09:08:32.128Z,53.83
2019-05-30T09:11:00.913Z,54.66
2019-05-30T09:13:26.727Z,49.19
2019-05-30T09:15:52.509Z,48.63
2019-05-30T09:18:18.442Z,50.24
2019-05-30T09:20:45.275Z,49.57
2019-05-30T09:23:11.116Z,50.50
2019-05-30T09:25:38.614Z,52.51
2019-05-30T09:28:05.228Z,54.29
2019-05-30T09:30:31.026Z,53.89
2019-05-30T09:32:56.822Z,53.65
2019-05-30T09:35:22.719Z,51.27
2019-05-30T09:37:49.493Z,45.85
2019-05-30T09:40:17.939Z,46.68
2019-05-30T09:42:44.702Z,48.34
2019-05-30T09:45:13.706Z,49.46
2019-05-30T09:47:47.248Z,44.02
2019-05-30T09:50:14.184Z,44.08
2019-05-30T09:52:41.585Z,43.73
2019-05-30T09:55:08.658Z,43.42
2019-05-30T09:57:34.492Z,43.47
2019-05-30T10:00:11.764Z,40.70
2019-05-30T10:02:37.995Z,41.34
2019-05-30T10:05:05.712Z,41.55
2019-05-30T10:07:31.486Z,41.08
2019-05-30T10:09:57.275Z,40.83
2019-05-30T10:12:23.069Z,41.74
2019-05-30T10:14:49.196Z,42.77
2019-05-30T10:17:15.322Z,44.20
2019-05-30T10:19:41.127Z,45.40
2019-05-30T10:22:07.234Z,44.63
2019-05-30T10:24:33.341Z,43.41
2019-05-30T10:26:59.125Z,44.89
2019-05-30T10:29:24.932Z,41.31
2019-05-30T10:31:50.974Z,42.89
2019-05-30T10:34:16.780Z,42.69
2019-05-30T10:36:44.598Z,42.95
2019-05-30T10:39:13.254Z,42.43
2019-05-30T10:41:39.280Z,43.39
2019-05-30T10:44:05.089Z,46.10
2019-05-30T10:46:31.141Z,47.87
2019-05-30T10:48:57.176Z,47.92
2019-05-30T10:51:23.279Z,46.41
2019-05-30T10:53:55.747Z,48.02
2019-05-30T10:56:22.014Z,48.21
2019-05-30T10:58:48.269Z,46.46
2019-05-30T11:01:14.406Z,46.70
2019-05-30T11:03:40.207Z,46.74
2019-05-30T11:06:12.858Z,46.93
2019-05-30T11:08:38.882Z,47.45
2019-05-30T11:11:05.119Z,48.25
2019-05-30T11:13:30.980Z,48.68
2019-05-30T11:15:57.434Z,45.65
2019-05-30T11:18:24.079Z,45.75
2019-05-30T11:20:50.105Z,46.27
2019-05-30T11:23:15.891Z,44.91
2019-05-30T11:25:41.717Z,46.06
2019-05-30T11:28:07.630Z,46.33
2019-05-30T11:30:33.531Z,46.83
2019-05-30T11:32:59.581Z,46.08
2019-05-30T11:35:25.420Z,46.19
2019-05-30T11:37:51.188Z,46.49
2019-05-30T11:40:16.982Z,43.65
2019-05-30T11:42:42.778Z,43.78
2019-05-30T11:45:09.049Z,41.43
2019-05-30T11:47:35.144Z,39.35
2019-05-30T11:50:01.199Z,39.14
2019-05-30T11:52:27.008Z,39.08
2019-05-30T11:54:53.860Z,41.30
2019-05-30T11:57:20.290Z,40.28
2019-05-30T11:59:46.118Z,40.62
2019-05-30T12:02:11.929Z,40.00
2019-05-30T12:04:37.714Z,40.87
2019-05-30T12:07:03.595Z,40.94
2019-05-30T12:09:29.706Z,41.28
2019-05-30T12:11:55.502Z,41.28
2019-05-30T12:14:21.612Z,41.23
2019-05-30T12:16:47.377Z,39.62
2019-05-30T12:19:13.451Z,39.08
2019-05-30T12:21:39.500Z,39.71
2019-05-30T12:24:05.599Z,39.30
2019-05-30T12:26:33.821Z,42.45
2019-05-30T12:29:00.126Z,42.49
2019-05-30T12:31:26.025Z,42.78
2019-05-30T12:33:52.346Z,41.77
2019-05-30T12:36:18.406Z,40.83
2019-05-30T12:38:44.219Z,41.24
2019-05-30T12:41:10.016Z,41.70
2019-05-30T12:43:35.845Z,42.36
2019-05-30T12:46:01.658Z,43.15
2019-05-30T12:48:27.709Z,43.47
2019-05-30T12:50:53.518Z,43.69
2019-05-30T12:53:19.538Z,42.31
2019-05-30T12:55:45.379Z,41.06
2019-05-30T12:58:11.191Z,40.58
2019-05-30T13:00:38.984Z,38.45
2019-05-30T13:03:04.823Z,38.89
2019-05-30T13:05:30.888Z,40.66
2019-05-30T13:08:11.966Z,40.31
2019-05-30T13:10:25.546Z,38.78
2019-05-30T13:12:51.421Z,40.47
2019-05-30T13:15:17.353Z,40.02
2019-05-30T13:17:43.138Z,40.59
2019-05-30T13:20:09.608Z,41.36
2019-05-30T13:22:36.501Z,41.28
2019-05-30T13:25:11.299Z,42.20
2019-05-30T13:27:37.102Z,42.98
2019-05-30T13:30:07.796Z,43.22
2019-05-30T13:32:33.868Z,43.47
2019-05-30T13:34:59.659Z,45.11
2019-05-30T13:37:26.637Z,43.95
2019-05-30T13:39:55.463Z,44.05
2019-05-30T13:42:21.570Z,45.56
2019-05-30T13:44:47.608Z,43.50
2019-05-30T13:47:13.667Z,44.49
2019-05-30T13:49:39.496Z,45.88
2019-05-30T13:52:05.333Z,45.79
2019-05-30T13:54:31.448Z,46.13
2019-05-30T13:56:57.306Z,45.86
2019-05-30T13:59:23.317Z,47.35
2019-05-30T14:01:49.407Z,47.87
2019-05-30T14:04:15.237Z,49.14
2019-05-30T14:06:41.307Z,46.74
2019-05-30T14:09:08.446Z,46.73
2019-05-30T14:11:34.727Z,45.52
2019-05-30T14:14:00.807Z,47.50
2019-05-30T14:16:26.620Z,46.79
2019-05-30T14:18:52.428Z,46.28
2019-05-30T14:21:18.519Z,44.96
2019-05-30T14:23:44.319Z,45.33
2019-05-30T14:26:11.475Z,46.64
2019-05-30T14:28:40.218Z,47.68
2019-05-30T14:31:06.791Z,47.91
2019-05-30T14:33:32.883Z,46.86
2019-05-30T14:35:58.700Z,47.46
2019-05-30T14:38:24.517Z,46.40
2019-05-30T14:40:50.319Z,45.79
2019-05-30T14:43:16.180Z,44.23
2019-05-30T14:45:41.971Z,45.13
2019-05-30T14:48:08.575Z,44.59
2019-05-30T14:50:34.787Z,44.16
2019-05-30T14:53:00.706Z,42.42
2019-05-30T14:55:26.756Z,41.31
2019-05-30T14:57:52.551Z,41.95
2019-05-30T15:00:18.923Z,42.63
2019-05-30T15:02:44.847Z,40.35
2019-05-30T15:05:13.784Z,40.55
2019-05-30T15:07:39.734Z,38.39
2019-05-30T15:10:08.495Z,38.35
2019-05-30T15:12:34.849Z,38.71
2019-05-30T15:15:00.989Z,39.47
2019-05-30T15:17:26.759Z,40.04
2019-05-30T15:19:52.622Z,41.32
2019-05-30T15:22:18.564Z,41.06
2019-05-30T15:24:44.655Z,42.15
2019-05-30T15:27:10.458Z,40.58
2019-05-30T15:29:36.616Z,40.85
2019-05-30T15:32:02.428Z,40.09
2019-05-30T15:34:28.229Z,42.61
2019-05-30T15:36:54.032Z,41.10
2019-05-30T15:39:32.524Z,40.09
2019-05-30T15:41:47.519Z,39.70
2019-05-30T15:44:15.861Z,40.55
2019-05-30T15:46:41.673Z,39.97
2019-05-30T15:49:08.174Z,39.90
2019-05-30T15:51:34.032Z,40.09
2019-05-30T15:54:00.107Z,40.79
2019-05-30T15:56:25.914Z,41.76
2019-05-30T15:58:51.982Z,42.18
2019-05-30T16:01:18.041Z,43.22
2019-05-30T16:03:43.905Z,42.37
2019-05-30T16:06:10.477Z,43.24
2019-05-30T16:08:36.597Z,42.95
2019-05-30T16:11:02.408Z,43.24
2019-05-30T16:13:28.196Z,43.67
2019-05-30T16:15:54.320Z,44.61
2019-05-30T16:18:20.348Z,45.59
2019-05-30T16:20:46.499Z,46.54
2019-05-30T16:23:12.687Z,46.21
2019-05-30T16:25:44.733Z,47.32
2019-05-30T16:28:13.788Z,48.12
2019-05-30T16:30:39.755Z,47.87
2019-05-30T16:33:05.808Z,48.15
2019-05-30T16:35:31.586Z,48.55
2019-05-30T16:37:57.410Z,48.26
2019-05-30T16:40:23.575Z,48.89
2019-05-30T16:42:49.382Z,48.48
2019-05-30T16:45:20.349Z,49.39
2019-05-30T16:47:42.908Z,49.34
2019-05-30T16:50:10.968Z,49.78
2019-05-30T16:52:36.745Z,49.93
2019-05-30T16:55:04.738Z,50.11
2019-05-30T16:57:30.524Z,50.54
2019-05-30T16:59:56.616Z,50.18
2019-05-30T17:02:22.833Z,50.46
2019-05-30T17:04:48.877Z,49.71
2019-05-30T17:07:15.039Z,49.86
2019-05-30T17:09:44.302Z,49.75
2019-05-30T17:12:10.081Z,49.89
2019-05-30T17:14:35.893Z,48.94
2019-05-30T17:17:02.982Z,49.92
2019-05-30T17:19:29.238Z,49.41
2019-05-30T17:21:55.034Z,49.18
2019-05-30T17:24:21.029Z,50.29
2019-05-30T17:26:46.855Z,50.21
2019-05-30T17:29:12.914Z,49.81
2019-05-30T17:31:38.965Z,50.13
2019-05-30T17:34:04.790Z,50.91
2019-05-30T17:36:30.570Z,50.81
2019-05-30T17:38:56.535Z,50.49
2019-05-30T17:41:22.765Z,51.24
2019-05-30T17:43:48.592Z,51.27
2019-05-30T17:46:14.660Z,52.18
2019-05-30T17:48:40.653Z,52.02
2019-05-30T17:51:06.479Z,52.16
2019-05-30T17:53:32.568Z,53.40
2019-05-30T17:55:59.464Z,53.66
2019-05-30T17:58:25.953Z,53.44
2019-05-30T18:00:51.783Z,53.21
2019-05-30T18:03:17.606Z,52.90
2019-05-30T18:05:43.405Z,53.46
2019-05-30T18:08:09.217Z,54.56
2019-05-30T18:10:35.061Z,54.67
2019-05-30T18:13:01.273Z,55.45
2019-05-30T18:15:31.996Z,54.85
2019-05-30T18:17:57.930Z,55.59
2019-05-30T18:20:23.833Z,55.72
2019-05-30T18:22:49.914Z,55.42
2019-05-30T18:25:16.034Z,56.00
2019-05-30T18:27:41.847Z,55.40
2019-05-30T18:30:08.968Z,56.47
2019-05-30T18:32:34.791Z,56.94
2019-05-30T18:35:00.579Z,56.86
2019-05-30T18:37:34.903Z,56.23
2019-05-30T18:40:02.342Z,57.24
2019-05-30T18:42:29.250Z,56.58
2019-05-30T18:44:55.308Z,57.15
2019-05-30T18:47:21.296Z,57.02
2019-05-30T18:49:47.360Z,58.07
2019-05-30T18:52:13.290Z,58.43
2019-05-30T18:54:39.085Z,58.17
2019-05-30T18:57:04.905Z,57.88
2019-05-30T18:59:33.245Z,58.84
2019-05-30T19:02:01.604Z,58.97
2019-05-30T19:04:28.097Z,58.86
2019-05-30T19:06:54.931Z,59.16
2019-05-30T19:09:22.179Z,59.24
2019-05-30T19:11:52.188Z,59.40
2019-05-30T19:14:18.300Z,59.64
2019-05-30T19:16:47.897Z,60.27
2019-05-30T19:19:15.167Z,60.60
2019-05-30T19:21:41.199Z,61.03
2019-05-30T19:24:07.728Z,61.08
2019-05-30T19:26:34.726Z,60.22
2019-05-30T19:29:00.705Z,61.14
2019-05-30T19:31:26.548Z,60.58
2019-05-30T19:33:52.325Z,61.06
2019-05-30T19:36:18.117Z,60.97
2019-05-30T19:38:43.923Z,61.19
2019-05-30T19:41:09.720Z,61.04
2019-05-30T19:43:35.929Z,61.12
2019-05-30T19:46:04.778Z,62.20
2019-05-30T19:48:30.822Z,62.20
2019-05-30T19:50:59.172Z,61.99
2019-05-30T19:53:25.914Z,62.49
2019-05-30T19:55:52.782Z,62.46
2019-05-30T19:58:18.596Z,62.91
2019-05-30T20:00:58.374Z,63.29
2019-05-30T20:03:36.433Z,63.17
2019-05-30T20:05:52.269Z,64.07
2019-05-30T20:08:18.083Z,64.07
2019-05-30T20:10:44.246Z,64.01
2019-05-30T20:13:10.156Z,64.34
2019-05-30T20:15:39.574Z,65.22
2019-05-30T20:20:50.379Z,64.39
2019-05-30T20:23:05.842Z,64.73
2019-05-30T20:25:32.629Z,64.12
2019-05-30T20:27:58.553Z,64.38
2019-05-30T20:30:24.505Z,64.06
2019-05-30T20:32:50.589Z,64.56
2019-05-30T20:35:16.527Z,64.83
2019-05-30T20:37:42.993Z,64.85
2019-05-30T20:40:10.184Z,65.71
2019-05-30T20:42:36.808Z,65.71
2019-05-30T20:45:09.736Z,66.03
2019-05-30T20:47:35.963Z,66.59
2019-05-30T20:50:06.298Z,66.59
2019-05-30T20:52:32.428Z,67.22
2019-05-30T20:54:58.326Z,67.88
2019-05-30T20:57:24.166Z,67.88
2019-05-30T20:59:50.254Z,67.87
2019-05-30T21:02:16.349Z,68.60
2019-05-30T21:04:42.997Z,68.60
2019-05-30T21:07:09.017Z,67.42
2019-05-30T21:09:35.943Z,67.78
2019-05-30T21:12:02.850Z,69.54
2019-05-30T21:14:32.123Z,69.88
2019-05-30T21:16:59.514Z,70.14
2019-05-30T21:19:25.363Z,70.14
2019-05-30T21:21:51.196Z,70.07
2019-05-30T21:24:17.325Z,70.57
2019-05-30T21:26:44.862Z,70.19
2019-05-30T21:29:10.823Z,70.19
2019-05-30T21:31:37.247Z,70.25
2019-05-30T21:34:03.633Z,70.55
2019-05-30T21:36:29.568Z,70.00
2019-05-30T21:38:55.323Z,69.38
2019-05-30T21:41:21.137Z,70.26
2019-05-30T21:43:47.011Z,70.40
2019-05-30T21:46:13.101Z,69.69
2019-05-30T21:48:38.948Z,70.14
2019-05-30T21:51:05.033Z,70.86
2019-05-30T21:53:30.826Z,70.90
2019-05-30T21:55:56.903Z,71.21
2019-05-30T21:58:22.700Z,71.03
2019-05-30T22:01:07.681Z,71.03
2019-05-30T22:03:33.733Z,70.88
2019-05-30T22:05:59.567Z,72.12
2019-05-30T22:08:25.404Z,72.53
2019-05-30T22:10:51.732Z,73.02
2019-05-30T22:13:17.787Z,72.32
2019-05-30T22:15:43.696Z,72.32
2019-05-30T22:18:15.535Z,71.68
2019-05-30T22:20:41.758Z,70.71
2019-05-30T22:23:10.902Z,70.63
2019-05-30T22:25:35.652Z,71.26
2019-05-30T22:28:01.442Z,72.07
2019-05-30T22:30:27.278Z,72.11
2019-05-30T22:32:53.085Z,71.95
2019-05-30T22:35:18.927Z,72.61
2019-05-30T22:37:44.870Z,73.22
2019-05-30T22:40:11.078Z,72.88
2019-05-30T22:42:36.900Z,72.36
2019-05-30T22:45:04.553Z,72.60
2019-05-30T22:47:30.808Z,72.59
2019-05-30T22:49:57.026Z,72.58
2019-05-30T22:52:23.081Z,73.41
2019-05-30T22:54:49.158Z,73.04
2019-05-30T22:57:14.967Z,73.38
2019-05-30T22:59:40.785Z,73.38
2019-05-30T23:02:06.884Z,73.76
2019-05-30T23:04:32.704Z,72.84
2019-05-30T23:06:58.527Z,73.12
2019-05-30T23:09:24.529Z,74.12
2019-05-30T23:11:50.318Z,75.27
2019-05-30T23:14:16.111Z,74.97
2019-05-30T23:16:42.021Z,75.15
2019-05-30T23:19:07.909Z,75.21
2019-05-30T23:21:33.935Z,75.42
2019-05-30T23:23:59.756Z,74.80
2019-05-30T23:26:25.548Z,75.01
2019-05-30T23:28:51.852Z,75.14
2019-05-30T23:31:17.764Z,75.18
2019-05-30T23:33:43.938Z,75.37
2019-05-30T23:36:09.802Z,75.62
2019-05-30T23:38:35.620Z,75.59
2019-05-30T23:41:04.434Z,75.35
2019-05-30T23:43:30.510Z,75.43
2019-05-30T23:45:57.531Z,75.54
2019-05-30T23:48:23.390Z,76.40
2019-05-30T23:50:49.738Z,77.15
2019-05-30T23:53:15.610Z,77.02
2019-05-30T23:55:41.666Z,76.97
2019-05-30T23:58:07.471Z,76.67
